Marquette, MI (49855)

2:47 PM EDT on May 28, 2015 (GMT -0400)
Harvey, MI | | Change Station
CLOSE
Current Station
Personal Weather Station
Location: Marquette, MI
Elevation: 725 ft
Nearby Weather Stations
Active Advisory: Flood Advisory Active Notice: Record Report

Elev 725 ft 46.47 °N, 87.37 °W | Updated 10 minutes ago

Fog
Fog
55.5 °F
Feels Like 55.5 °F
N
2.0
Wind Variable Wind from NE
Gusts 5.0 mph

Today
High -- | Low -- °F
--% Chance of Precip.
Yesterday
High -- | Low -- °F
Precip. -- in
6:03 AM 9:30 PM
Waxing Gibbous, 77% visible
Pressure 30.13 in
Visibility 10.0 miles
Clouds Clear
Dew Point 47 °F
Humidity 74%
Rainfall 0.00 in
Snow Depth Not available.
UV 6.0 out of 12
Pollen 8.40 out of 12
Air Quality Not available.
Flu Activity Sporadic
METAR KSAW 281750Z 20005KT 10SM SKC 23/13 A3013

More Conditions Fewer Conditions

Pressure 30.13 in
Visibility 10.0 miles
Clouds Clear
Dew Point 47 °F
Humidity 74%
Rainfall 0.00 in
Snow Depth Not available.
UV 6.0 out of 12
Pollen 8.40 out of 12
Air Quality Not available.
Flu Activity Sporadic
METAR KSAW 281750Z 20005KT 10SM SKC 23/13 A3013

More Conditions Fewer Conditions

10-Day Weather Forecast

Almanac

Astronomy

May. 28, 2015 Rise Set
Actual Time
Civil Twilight
Nautical Twilight
Astronomical Twilight
Moon
Length of Visible Light
Length of Day
Tomorrow will be .
, % of the Moon is Illuminated

Today's Extremes

State Highs State Lows

Community

WunderPhotos

Upload Photos

1,825,015 photos uploaded!

WunderBlogs® & News

Nearby

Air Quality

  Air Quality AQ Index Pollutant
Not available.

Snow Depth

Station Depth Elevation

Earthquake Activity

City Distance Mag. Time & Date
Minimum magnitude displayed is 2.5.

Coastal Water Temperatures

Place Temperature

Stations

Nearby Weather Stations

Station Location Temp. Windchill Dew Point Humidity Wind Precip. Elev Updated Type
                   
Flood Advisory
Statement as of 11:21 AM EDT on May 28, 2015

The National Weather Service in Marquette has issued a
* Flood Advisory for
the Chocolay river near Harvey.
* Until this evening.
* At 10 am Thursday the stage was 9.3 feet.
* Bankfull stage is 9.0 feet.
* Flood stage is 10.0 feet.
* Forecast... the river will rise to near 9.5 feet by this afternoon
then gradually subside through this evening. The river may rise
again Friday into Friday night if additional heavy rain affects the
chocalay river basin.
* At 10.0 feet... water inundates the entire parking lot at the M-28
bridge... and the fishing pier begins to be submerged. Water
inundates low lying areas along Timber Lane and Riverside Road
downstream of the river gauge site.
* At 9.0 feet... water begins to inundate the parking lot where M-28
crosses the Chocolay river... as well as low lying areas along
Timber Lane and towards the mouth of the river.


Lat... Lon 4649 8726 4642 8732 4646 8739 4651 8737
      4650 8733 4649 8729